createdAt,value
2022-09-18T00:01:58.109Z,101431.41
2022-09-18T00:07:00.153Z,101430.91
2022-09-18T00:12:02.232Z,101421.75
2022-09-18T00:17:08.917Z,101416.22
2022-09-18T00:22:11.137Z,101413.63
2022-09-18T00:27:13.456Z,101421.47
2022-09-18T00:32:15.371Z,101424.94
2022-09-18T00:37:17.595Z,101412.03
2022-09-18T00:42:20.289Z,101408.97
2022-09-18T00:47:51.562Z,101410.75
2022-09-18T00:53:03.070Z,101410.13
2022-09-18T00:58:06.017Z,101398.84
2022-09-18T01:03:08.333Z,101397.72
2022-09-18T01:08:30.936Z,101406.03
2022-09-18T01:13:51.150Z,101397.06
2022-09-18T01:29:26.962Z,101394.81
2022-09-18T01:34:43.722Z,101401.03
2022-09-18T01:40:18.372Z,101400.06
2022-09-18T01:45:26.466Z,101398.91
2022-09-18T01:50:33.745Z,101396.00
2022-09-18T01:55:39.038Z,101388.97
2022-09-18T02:00:52.820Z,101383.25
2022-09-18T02:06:10.523Z,101383.75
2022-09-18T02:11:15.085Z,101381.81
2022-09-18T02:16:35.905Z,101378.38
2022-09-18T02:21:44.409Z,101379.84
2022-09-18T02:26:51.984Z,101384.72
2022-09-18T02:31:54.536Z,101385.88
2022-09-18T02:37:11.178Z,101378.19
2022-09-18T02:42:43.543Z,101371.16
2022-09-18T02:48:16.517Z,101360.88
2022-09-18T02:53:56.358Z,101368.44
2022-09-18T03:07:36.179Z,101363.53
2022-09-18T03:12:41.855Z,101367.28
2022-09-18T03:17:48.193Z,101378.69
2022-09-18T03:23:11.849Z,101375.75
2022-09-18T03:28:39.629Z,101382.28
2022-09-18T03:34:02.763Z,101386.06
2022-09-18T03:44:31.364Z,101392.56
2022-09-18T03:49:59.740Z,101382.13
2022-09-18T03:55:12.113Z,101391.94
2022-09-18T04:00:36.059Z,101391.63
2022-09-18T04:05:48.507Z,101400.25
2022-09-18T04:11:18.843Z,101401.09
2022-09-18T04:16:25.803Z,101403.88
2022-09-18T04:21:34.092Z,101403.88
2022-09-18T04:26:45.594Z,101417.09
2022-09-18T04:31:49.620Z,101423.16
2022-09-18T04:37:03.383Z,101413.53
2022-09-18T04:42:24.872Z,101410.13
2022-09-18T04:47:59.414Z,101413.19
2022-09-18T04:53:10.106Z,101414.63
2022-09-18T05:03:39.249Z,101413.19
2022-09-18T05:08:54.275Z,101430.81
2022-09-18T05:14:08.807Z,101431.81
2022-09-18T05:19:21.715Z,101432.31
2022-09-18T05:24:30.185Z,101436.22
2022-09-18T05:29:36.585Z,101447.00
2022-09-18T05:34:58.005Z,101441.59
2022-09-18T05:45:39.890Z,101468.38
2022-09-18T05:51:06.011Z,101468.69
2022-09-18T05:56:15.195Z,101471.00
2022-09-18T06:01:21.616Z,101475.22
2022-09-18T06:07:00.409Z,101483.66
2022-09-18T06:12:04.148Z,101489.00
2022-09-18T06:17:19.459Z,101479.47
2022-09-18T06:22:31.608Z,101494.59
2022-09-18T06:27:42.345Z,101485.41
2022-09-18T06:32:47.251Z,101494.50
2022-09-18T06:37:51.349Z,101488.34
2022-09-18T06:43:19.715Z,101496.00
2022-09-18T06:48:47.540Z,101495.69
2022-09-18T06:53:55.532Z,101491.97
2022-09-18T06:58:59.946Z,101498.19
2022-09-18T07:04:13.232Z,101500.97
2022-09-18T07:09:25.365Z,101498.19
2022-09-18T07:14:38.134Z,101501.34
2022-09-18T07:19:55.035Z,101500.84
2022-09-18T07:30:32.665Z,101503.34
2022-09-18T07:35:48.682Z,101516.94
2022-09-18T07:40:56.395Z,101510.28
2022-09-18T07:46:18.505Z,101515.47
2022-09-18T07:56:50.169Z,101516.16
2022-09-18T08:02:09.818Z,101529.16
2022-09-18T08:07:21.266Z,101535.09
2022-09-18T08:12:52.635Z,101535.91
2022-09-18T08:18:27.192Z,101536.16
2022-09-18T08:24:04.546Z,101538.72
2022-09-18T08:29:26.837Z,101550.59
2022-09-18T08:34:41.210Z,101552.44
2022-09-18T08:39:50.192Z,101554.75
2022-09-18T08:46:03.134Z,101569.88
2022-09-18T08:51:29.260Z,101565.31
2022-09-18T08:56:46.167Z,101566.56
2022-09-18T09:02:45.423Z,101570.66
2022-09-18T09:07:56.721Z,101575.13
2022-09-18T09:13:48.953Z,101583.00
2022-09-18T09:19:22.640Z,101578.69
2022-09-18T09:24:47.236Z,101568.81
2022-09-18T09:30:43.349Z,101565.44
2022-09-18T09:36:19.741Z,101573.09
2022-09-18T09:41:58.455Z,101577.28
2022-09-18T09:47:08.338Z,101571.13
2022-09-18T09:52:28.184Z,101577.53
2022-09-18T09:58:18.510Z,101574.28
2022-09-18T10:03:47.053Z,101578.81
2022-09-18T10:09:27.145Z,101574.97
2022-09-18T10:14:41.174Z,101576.22
2022-09-18T10:19:44.813Z,101569.84
2022-09-18T10:25:11.923Z,101584.28
2022-09-18T10:30:26.106Z,101579.63
2022-09-18T10:35:52.536Z,101577.41
2022-09-18T10:40:58.137Z,101574.28
2022-09-18T10:46:21.247Z,101571.47
2022-09-18T10:51:31.675Z,101555.88
2022-09-18T10:56:37.109Z,101560.97
2022-09-18T11:01:49.206Z,101561.13
2022-09-18T11:06:52.226Z,101563.59
2022-09-18T11:17:31.573Z,101567.97
2022-09-18T11:22:47.610Z,101550.09
2022-09-18T11:28:24.886Z,101554.94
2022-09-18T11:33:51.857Z,101556.78
2022-09-18T11:39:27.289Z,101563.09
2022-09-18T11:44:40.054Z,101566.81
2022-09-18T11:50:18.453Z,101559.69
2022-09-18T11:56:10.972Z,101545.41
2022-09-18T12:01:56.414Z,101552.13
2022-09-18T12:07:45.368Z,101542.38
2022-09-18T12:13:29.932Z,101541.19
2022-09-18T12:19:08.515Z,101535.34
2022-09-18T12:24:17.874Z,101530.38
2022-09-18T12:29:39.248Z,101532.50
2022-09-18T12:35:18.258Z,101525.91
2022-09-18T12:41:03.572Z,101524.31
2022-09-18T12:46:26.223Z,101517.53
2022-09-18T12:51:41.934Z,101516.63
2022-09-18T12:57:40.632Z,101529.41
2022-09-18T13:03:09.608Z,101510.69
2022-09-18T13:08:17.639Z,101515.19
2022-09-18T13:13:31.836Z,101518.91
2022-09-18T13:18:34.768Z,101513.72
2022-09-18T13:23:40.573Z,101513.03
2022-09-18T13:29:05.095Z,101508.84
2022-09-18T13:34:16.369Z,101500.78
2022-09-18T13:39:27.048Z,101497.88
2022-09-18T13:44:33.193Z,101495.09
2022-09-18T13:49:44.842Z,101481.16
2022-09-18T13:55:11.773Z,101473.97
2022-09-18T14:00:20.707Z,101466.13
2022-09-18T14:05:32.285Z,101476.72
2022-09-18T14:11:13.712Z,101465.56
2022-09-18T14:16:15.816Z,101453.88
2022-09-18T14:21:17.779Z,101449.69
2022-09-18T14:26:28.809Z,101451.53
2022-09-18T14:31:35.566Z,101449.91
2022-09-18T14:36:53.355Z,101446.69
2022-09-18T14:42:04.961Z,101441.56
2022-09-18T14:47:17.403Z,101443.38
2022-09-18T14:52:28.269Z,101434.88
2022-09-18T14:57:38.109Z,101433.53
2022-09-18T15:02:43.284Z,101442.38
2022-09-18T15:07:52.071Z,101427.72
2022-09-18T15:12:56.677Z,101431.66
2022-09-18T15:17:58.782Z,101426.84
2022-09-18T15:23:00.728Z,101428.53
2022-09-18T15:28:06.923Z,101431.66
2022-09-18T15:33:19.617Z,101433.16
2022-09-18T15:38:31.270Z,101425.69
2022-09-18T15:43:41.003Z,101422.56
2022-09-18T15:48:45.363Z,101430.84
2022-09-18T15:54:10.594Z,101429.91
2022-09-18T15:59:32.609Z,101429.97
2022-09-18T16:04:37.547Z,101431.13
2022-09-18T16:09:50.216Z,101431.94
2022-09-18T16:15:13.850Z,101426.91
2022-09-18T16:20:37.474Z,101426.31
2022-09-18T16:25:42.115Z,101416.75
2022-09-18T16:30:54.301Z,101423.47
2022-09-18T16:36:02.497Z,101419.72
2022-09-18T16:41:04.623Z,101416.81
2022-09-18T16:46:06.505Z,101408.78
2022-09-18T16:51:08.481Z,101419.78
2022-09-18T16:56:18.788Z,101417.34
2022-09-18T17:01:23.594Z,101416.53
2022-09-18T17:06:25.919Z,101418.16
2022-09-18T17:11:31.040Z,101407.38
2022-09-18T17:16:44.866Z,101410.50
2022-09-18T17:21:47.308Z,101418.84
2022-09-18T17:26:55.321Z,101413.94
2022-09-18T17:32:01.403Z,101407.09
2022-09-18T17:37:06.097Z,101418.88
2022-09-18T17:42:09.566Z,101412.69
2022-09-18T17:47:36.178Z,101416.69
2022-09-18T17:52:38.146Z,101420.00
2022-09-18T17:57:44.024Z,101420.00
2022-09-18T18:02:55.725Z,101421.63
2022-09-18T18:07:57.621Z,101426.88
2022-09-18T18:12:59.709Z,101421.38
2022-09-18T18:18:04.738Z,101427.94
2022-09-18T18:23:14.389Z,101430.03
2022-09-18T18:28:16.812Z,101439.06
2022-09-18T18:33:18.751Z,101433.97
2022-09-18T18:38:25.366Z,101441.81
2022-09-18T18:43:28.966Z,101443.78
2022-09-18T18:48:34.344Z,101447.38
2022-09-18T18:53:36.418Z,101458.16
2022-09-18T18:58:38.621Z,101463.72
2022-09-18T19:03:49.676Z,101471.09
2022-09-18T19:09:02.083Z,101471.94
2022-09-18T19:14:13.148Z,101482.22
2022-09-18T19:19:23.449Z,101485.97
2022-09-18T19:24:26.691Z,101484.00
2022-09-18T19:29:30.847Z,101491.19
2022-09-18T19:34:33.464Z,101491.69
2022-09-18T19:39:35.430Z,101490.69
2022-09-18T19:44:47.304Z,101500.34
2022-09-18T19:49:50.964Z,101496.44
2022-09-18T19:54:54.602Z,101497.72
2022-09-18T19:59:58.683Z,101496.75
2022-09-18T20:05:01.921Z,101503.09
2022-09-18T20:10:10.388Z,101496.88
2022-09-18T20:15:17.298Z,101502.44
2022-09-18T20:20:24.908Z,101491.34
2022-09-18T20:25:46.966Z,101500.19
2022-09-18T20:30:54.043Z,101499.38
2022-09-18T20:36:00.329Z,101495.44
2022-09-18T20:41:08.153Z,101497.06
2022-09-18T20:46:18.082Z,101487.59
2022-09-18T20:51:24.641Z,101486.94
2022-09-18T20:56:36.322Z,101486.25
2022-09-18T21:01:41.758Z,101477.59
2022-09-18T21:06:47.586Z,101478.72
2022-09-18T21:11:49.841Z,101477.91
2022-09-18T21:16:53.363Z,101487.88
2022-09-18T21:21:56.853Z,101493.44
2022-09-18T21:27:00.431Z,101496.38
2022-09-18T21:32:02.461Z,101497.69
2022-09-18T21:37:11.459Z,101487.38
2022-09-18T21:42:17.268Z,101495.38
2022-09-18T21:47:25.019Z,101499.63
2022-09-18T21:52:28.929Z,101499.97
2022-09-18T21:57:30.929Z,101505.38
2022-09-18T22:02:32.875Z,101509.97
2022-09-18T22:07:38.464Z,101504.59
2022-09-18T22:12:41.311Z,101497.88
2022-09-18T22:17:44.591Z,101501.97
2022-09-18T22:22:46.744Z,101495.44
2022-09-18T22:27:49.407Z,101497.91
2022-09-18T22:32:52.088Z,101496.44
2022-09-18T22:37:57.641Z,101485.19
2022-09-18T22:42:59.521Z,101477.81
2022-09-18T22:48:01.562Z,101484.03
2022-09-18T22:53:03.583Z,101484.69
2022-09-18T22:58:06.062Z,101475.88
2022-09-18T23:03:12.782Z,101474.75
2022-09-18T23:08:19.560Z,101473.44
2022-09-18T23:13:24.776Z,101471.00
2022-09-18T23:18:26.682Z,101473.44
2022-09-18T23:23:31.410Z,101468.38
2022-09-18T23:28:38.461Z,101470.50
2022-09-18T23:33:41.552Z,101469.88
2022-09-18T23:38:44.375Z,101464.47
2022-09-18T23:43:51.833Z,101456.81
2022-09-18T23:48:56.706Z,101460.53
2022-09-18T23:54:01.797Z,101452.06
2022-09-18T23:59:07.482Z,101460.53
